sensor_id;sensor_type;location;lat;lon;timestamp;temperature;humidity
9083;DHT22;4577;48.704;9.000;2023-07-30T00:01:59;19.40;99.90
9083;DHT22;4577;48.704;9.000;2023-07-30T00:04:25;19.50;99.90
9083;DHT22;4577;48.704;9.000;2023-07-30T00:06:50;19.60;99.90
9083;DHT22;4577;48.704;9.000;2023-07-30T00:09:16;19.70;99.90
9083;DHT22;4577;48.704;9.000;2023-07-30T00:11:42;19.70;99.90
9083;DHT22;4577;48.704;9.000;2023-07-30T00:14:07;19.60;99.90
9083;DHT22;4577;48.704;9.000;2023-07-30T00:16:33;19.70;99.90
9083;DHT22;4577;48.704;9.000;2023-07-30T00:18:59;19.70;99.90
9083;DHT22;4577;48.704;9.000;2023-07-30T00:21:25;19.40;99.90
9083;DHT22;4577;48.704;9.000;2023-07-30T00:23:50;19.60;99.90
9083;DHT22;4577;48.704;9.000;2023-07-30T00:26:16;19.50;99.90
9083;DHT22;4577;48.704;9.000;2023-07-30T00:28:42;19.40;99.90
9083;DHT22;4577;48.704;9.000;2023-07-30T00:31:07;19.40;99.90
9083;DHT22;4577;48.704;9.000;2023-07-30T00:33:33;19.50;99.90
9083;DHT22;4577;48.704;9.000;2023-07-30T00:35:59;19.50;99.90
9083;DHT22;4577;48.704;9.000;2023-07-30T00:38:24;19.40;99.90
9083;DHT22;4577;48.704;9.000;2023-07-30T00:40:50;19.30;99.90
9083;DHT22;4577;48.704;9.000;2023-07-30T00:43:16;19.40;99.90
9083;DHT22;4577;48.704;9.000;2023-07-30T00:45:44;19.40;99.90
9083;DHT22;4577;48.704;9.000;2023-07-30T00:48:13;19.40;99.90
9083;DHT22;4577;48.704;9.000;2023-07-30T00:50:40;19.40;99.90
9083;DHT22;4577;48.704;9.000;2023-07-30T00:53:09;19.40;99.90
9083;DHT22;4577;48.704;9.000;2023-07-30T00:55:35;19.40;99.90
9083;DHT22;4577;48.704;9.000;2023-07-30T00:58:01;19.10;99.90
9083;DHT22;4577;48.704;9.000;2023-07-30T01:00:27;19.10;99.90
9083;DHT22;4577;48.704;9.000;2023-07-30T01:02:55;19.10;99.90
9083;DHT22;4577;48.704;9.000;2023-07-30T01:05:21;19.10;99.90
9083;DHT22;4577;48.704;9.000;2023-07-30T01:07:47;19.10;99.90
9083;DHT22;4577;48.704;9.000;2023-07-30T01:10:13;19.10;99.90
9083;DHT22;4577;48.704;9.000;2023-07-30T01:12:39;19.20;99.90
9083;DHT22;4577;48.704;9.000;2023-07-30T01:15:07;19.20;99.90
9083;DHT22;4577;48.704;9.000;2023-07-30T01:17:33;19.20;99.90
9083;DHT22;4577;48.704;9.000;2023-07-30T01:19:59;19.10;99.90
9083;DHT22;4577;48.704;9.000;2023-07-30T01:22:25;19.20;99.90
9083;DHT22;4577;48.704;9.000;2023-07-30T01:24:51;19.30;99.90
9083;DHT22;4577;48.704;9.000;2023-07-30T01:27:28;19.30;99.90
9083;DHT22;4577;48.704;9.000;2023-07-30T01:30:06;19.30;99.90
9083;DHT22;4577;48.704;9.000;2023-07-30T01:32:34;19.30;99.90
9083;DHT22;4577;48.704;9.000;2023-07-30T01:35:01;19.30;99.90
9083;DHT22;4577;48.704;9.000;2023-07-30T01:37:29;19.30;99.90
9083;DHT22;4577;48.704;9.000;2023-07-30T01:39:55;19.20;99.90
9083;DHT22;4577;48.704;9.000;2023-07-30T01:42:21;19.10;99.90
9083;DHT22;4577;48.704;9.000;2023-07-30T01:44:47;19.10;99.90
9083;DHT22;4577;48.704;9.000;2023-07-30T01:47:13;19.00;99.90
9083;DHT22;4577;48.704;9.000;2023-07-30T01:49:38;19.00;99.90
9083;DHT22;4577;48.704;9.000;2023-07-30T01:52:04;19.00;99.90
9083;DHT22;4577;48.704;9.000;2023-07-30T01:54:30;18.90;99.90
9083;DHT22;4577;48.704;9.000;2023-07-30T01:56:55;18.90;99.90
9083;DHT22;4577;48.704;9.000;2023-07-30T01:59:21;18.90;99.90
9083;DHT22;4577;48.704;9.000;2023-07-30T02:01:47;18.90;99.90
9083;DHT22;4577;48.704;9.000;2023-07-30T02:04:12;18.90;99.90
9083;DHT22;4577;48.704;9.000;2023-07-30T02:06:38;18.80;99.90
9083;DHT22;4577;48.704;9.000;2023-07-30T02:09:04;18.70;99.90
9083;DHT22;4577;48.704;9.000;2023-07-30T02:11:29;18.20;99.90
9083;DHT22;4577;48.704;9.000;2023-07-30T02:13:55;18.60;99.90
9083;DHT22;4577;48.704;9.000;2023-07-30T02:16:21;18.60;99.90
9083;DHT22;4577;48.704;9.000;2023-07-30T02:18:46;18.70;99.90
9083;DHT22;4577;48.704;9.000;2023-07-30T02:21:12;18.70;99.90
9083;DHT22;4577;48.704;9.000;2023-07-30T02:23:38;18.60;99.90
9083;DHT22;4577;48.704;9.000;2023-07-30T02:26:04;18.70;99.90
9083;DHT22;4577;48.704;9.000;2023-07-30T02:28:29;18.70;99.90
9083;DHT22;4577;48.704;9.000;2023-07-30T02:30:55;18.70;99.90
9083;DHT22;4577;48.704;9.000;2023-07-30T02:33:21;18.60;99.90
9083;DHT22;4577;48.704;9.000;2023-07-30T02:35:47;18.70;99.90
9083;DHT22;4577;48.704;9.000;2023-07-30T02:38:12;18.60;99.90
9083;DHT22;4577;48.704;9.000;2023-07-30T02:40:38;18.60;99.90
9083;DHT22;4577;48.704;9.000;2023-07-30T02:43:04;18.60;99.90
9083;DHT22;4577;48.704;9.000;2023-07-30T02:45:30;18.60;99.90
9083;DHT22;4577;48.704;9.000;2023-07-30T02:47:56;18.50;99.90
9083;DHT22;4577;48.704;9.000;2023-07-30T02:50:22;18.50;99.90
9083;DHT22;4577;48.704;9.000;2023-07-30T02:52:47;18.50;99.90
9083;DHT22;4577;48.704;9.000;2023-07-30T02:55:13;18.60;99.90
9083;DHT22;4577;48.704;9.000;2023-07-30T02:57:39;18.60;99.90
9083;DHT22;4577;48.704;9.000;2023-07-30T03:00:05;18.60;99.90
9083;DHT22;4577;48.704;9.000;2023-07-30T03:02:31;18.50;99.90
9083;DHT22;4577;48.704;9.000;2023-07-30T03:04:57;18.50;99.90
9083;DHT22;4577;48.704;9.000;2023-07-30T03:07:22;18.50;99.90
9083;DHT22;4577;48.704;9.000;2023-07-30T03:09:48;18.50;99.90
9083;DHT22;4577;48.704;9.000;2023-07-30T03:12:14;20.60;99.90
9083;DHT22;4577;48.704;9.000;2023-07-30T03:14:40;18.50;99.90
9083;DHT22;4577;48.704;9.000;2023-07-30T03:17:06;18.40;99.90
9083;DHT22;4577;48.704;9.000;2023-07-30T03:19:31;18.40;99.90
9083;DHT22;4577;48.704;9.000;2023-07-30T03:21:57;18.50;99.90
9083;DHT22;4577;48.704;9.000;2023-07-30T03:24:23;18.30;99.90
9083;DHT22;4577;48.704;9.000;2023-07-30T03:26:49;18.30;99.90
9083;DHT22;4577;48.704;9.000;2023-07-30T03:29:15;18.30;99.90
9083;DHT22;4577;48.704;9.000;2023-07-30T03:31:41;18.30;99.90
9083;DHT22;4577;48.704;9.000;2023-07-30T03:34:06;18.30;99.90
9083;DHT22;4577;48.704;9.000;2023-07-30T03:36:32;18.30;99.90
9083;DHT22;4577;48.704;9.000;2023-07-30T03:38:58;18.30;99.90
9083;DHT22;4577;48.704;9.000;2023-07-30T03:41:23;18.20;99.90
9083;DHT22;4577;48.704;9.000;2023-07-30T03:43:50;18.40;99.90
9083;DHT22;4577;48.704;9.000;2023-07-30T03:46:15;18.30;99.90
9083;DHT22;4577;48.704;9.000;2023-07-30T03:48:41;18.30;99.90
9083;DHT22;4577;48.704;9.000;2023-07-30T03:51:07;18.30;99.90
9083;DHT22;4577;48.704;9.000;2023-07-30T03:53:33;18.30;99.90
9083;DHT22;4577;48.704;9.000;2023-07-30T03:55:59;18.40;99.90
9083;DHT22;4577;48.704;9.000;2023-07-30T03:58:24;18.40;99.90
9083;DHT22;4577;48.704;9.000;2023-07-30T04:00:50;18.30;99.90
9083;DHT22;4577;48.704;9.000;2023-07-30T04:03:16;18.30;99.90
9083;DHT22;4577;48.704;9.000;2023-07-30T04:05:41;18.40;99.90
9083;DHT22;4577;48.704;9.000;2023-07-30T04:08:07;18.40;99.90
9083;DHT22;4577;48.704;9.000;2023-07-30T04:10:33;18.40;99.90
9083;DHT22;4577;48.704;9.000;2023-07-30T04:12:59;18.50;99.90
9083;DHT22;4577;48.704;9.000;2023-07-30T04:15:25;18.50;99.90
9083;DHT22;4577;48.704;9.000;2023-07-30T04:17:50;18.60;99.90
9083;DHT22;4577;48.704;9.000;2023-07-30T04:20:16;18.40;99.90
9083;DHT22;4577;48.704;9.000;2023-07-30T04:22:43;18.50;99.90
9083;DHT22;4577;48.704;9.000;2023-07-30T04:25:09;18.40;99.90
9083;DHT22;4577;48.704;9.000;2023-07-30T04:27:36;18.40;99.90
9083;DHT22;4577;48.704;9.000;2023-07-30T04:30:02;18.30;99.90
9083;DHT22;4577;48.704;9.000;2023-07-30T04:32:28;18.40;99.90
9083;DHT22;4577;48.704;9.000;2023-07-30T04:34:54;18.40;99.90
9083;DHT22;4577;48.704;9.000;2023-07-30T04:37:19;18.50;99.90
9083;DHT22;4577;48.704;9.000;2023-07-30T04:39:45;18.50;99.90
9083;DHT22;4577;48.704;9.000;2023-07-30T04:42:11;18.50;99.90
9083;DHT22;4577;48.704;9.000;2023-07-30T04:44:38;18.50;99.90
9083;DHT22;4577;48.704;9.000;2023-07-30T04:47:04;18.50;99.90
9083;DHT22;4577;48.704;9.000;2023-07-30T04:49:30;18.50;99.90
9083;DHT22;4577;48.704;9.000;2023-07-30T04:51:56;18.50;99.90
9083;DHT22;4577;48.704;9.000;2023-07-30T04:54:22;18.50;99.90
9083;DHT22;4577;48.704;9.000;2023-07-30T04:56:47;18.50;99.90
9083;DHT22;4577;48.704;9.000;2023-07-30T04:59:13;18.50;99.90
9083;DHT22;4577;48.704;9.000;2023-07-30T05:01:38;18.50;99.90
9083;DHT22;4577;48.704;9.000;2023-07-30T05:04:04;18.50;99.90
9083;DHT22;4577;48.704;9.000;2023-07-30T05:06:30;18.40;99.90
9083;DHT22;4577;48.704;9.000;2023-07-30T05:08:56;18.40;99.90
9083;DHT22;4577;48.704;9.000;2023-07-30T05:11:22;18.20;99.90
9083;DHT22;4577;48.704;9.000;2023-07-30T05:13:47;18.40;99.90
9083;DHT22;4577;48.704;9.000;2023-07-30T05:16:13;18.40;99.90
9083;DHT22;4577;48.704;9.000;2023-07-30T05:18:39;18.40;99.90
9083;DHT22;4577;48.704;9.000;2023-07-30T05:21:04;18.40;99.90
9083;DHT22;4577;48.704;9.000;2023-07-30T05:23:30;18.40;99.90
9083;DHT22;4577;48.704;9.000;2023-07-30T05:25:56;18.40;99.90
9083;DHT22;4577;48.704;9.000;2023-07-30T05:28:21;18.40;99.90
9083;DHT22;4577;48.704;9.000;2023-07-30T05:30:47;18.40;99.90
9083;DHT22;4577;48.704;9.000;2023-07-30T05:33:13;18.30;99.90
9083;DHT22;4577;48.704;9.000;2023-07-30T05:35:38;18.30;99.90
9083;DHT22;4577;48.704;9.000;2023-07-30T05:38:04;18.30;99.90
9083;DHT22;4577;48.704;9.000;2023-07-30T05:40:30;18.40;99.90
9083;DHT22;4577;48.704;9.000;2023-07-30T05:42:56;18.40;99.90
9083;DHT22;4577;48.704;9.000;2023-07-30T05:45:21;18.30;99.90
9083;DHT22;4577;48.704;9.000;2023-07-30T05:47:47;18.30;99.90
9083;DHT22;4577;48.704;9.000;2023-07-30T05:50:13;18.30;99.90
9083;DHT22;4577;48.704;9.000;2023-07-30T05:52:38;18.30;99.90
9083;DHT22;4577;48.704;9.000;2023-07-30T05:55:04;18.30;99.90
9083;DHT22;4577;48.704;9.000;2023-07-30T05:57:30;18.40;99.90
9083;DHT22;4577;48.704;9.000;2023-07-30T05:59:56;18.40;99.90
9083;DHT22;4577;48.704;9.000;2023-07-30T06:02:21;18.50;99.90
9083;DHT22;4577;48.704;9.000;2023-07-30T06:04:47;18.50;99.90
9083;DHT22;4577;48.704;9.000;2023-07-30T06:07:14;18.50;99.90
9083;DHT22;4577;48.704;9.000;2023-07-30T06:09:40;18.50;99.90
9083;DHT22;4577;48.704;9.000;2023-07-30T06:12:05;18.50;99.90
9083;DHT22;4577;48.704;9.000;2023-07-30T06:14:31;18.50;99.90
9083;DHT22;4577;48.704;9.000;2023-07-30T06:16:57;18.50;99.90
9083;DHT22;4577;48.704;9.000;2023-07-30T06:19:22;18.50;99.90
9083;DHT22;4577;48.704;9.000;2023-07-30T06:21:48;18.50;99.90
9083;DHT22;4577;48.704;9.000;2023-07-30T06:24:14;18.50;99.90
9083;DHT22;4577;48.704;9.000;2023-07-30T06:26:40;18.50;99.90
9083;DHT22;4577;48.704;9.000;2023-07-30T06:29:05;18.50;99.90
9083;DHT22;4577;48.704;9.000;2023-07-30T06:31:31;18.80;99.90
9083;DHT22;4577;48.704;9.000;2023-07-30T06:33:57;18.50;99.90
9083;DHT22;4577;48.704;9.000;2023-07-30T06:36:22;18.60;99.90
9083;DHT22;4577;48.704;9.000;2023-07-30T06:38:48;18.70;99.90
9083;DHT22;4577;48.704;9.000;2023-07-30T06:41:14;18.80;99.90
9083;DHT22;4577;48.704;9.000;2023-07-30T06:43:39;18.90;99.90
9083;DHT22;4577;48.704;9.000;2023-07-30T06:48:31;18.70;99.90
9083;DHT22;4577;48.704;9.000;2023-07-30T06:50:57;18.60;99.90
9083;DHT22;4577;48.704;9.000;2023-07-30T06:53:23;20.10;99.90
9083;DHT22;4577;48.704;9.000;2023-07-30T06:55:48;18.60;99.90
9083;DHT22;4577;48.704;9.000;2023-07-30T06:58:14;18.60;99.90
9083;DHT22;4577;48.704;9.000;2023-07-30T07:00:40;18.60;99.90
9083;DHT22;4577;48.704;9.000;2023-07-30T07:03:05;18.60;99.90
9083;DHT22;4577;48.704;9.000;2023-07-30T07:05:31;18.70;99.90
9083;DHT22;4577;48.704;9.000;2023-07-30T07:07:57;18.80;99.90
9083;DHT22;4577;48.704;9.000;2023-07-30T07:10:23;18.80;99.90
9083;DHT22;4577;48.704;9.000;2023-07-30T07:12:48;18.80;99.90
9083;DHT22;4577;48.704;9.000;2023-07-30T07:15:15;18.80;99.90
9083;DHT22;4577;48.704;9.000;2023-07-30T07:17:41;18.70;99.90
9083;DHT22;4577;48.704;9.000;2023-07-30T07:20:07;18.70;99.90
9083;DHT22;4577;48.704;9.000;2023-07-30T07:22:33;18.70;99.90
9083;DHT22;4577;48.704;9.000;2023-07-30T07:24:59;18.60;99.90
9083;DHT22;4577;48.704;9.000;2023-07-30T07:27:25;18.40;99.90
9083;DHT22;4577;48.704;9.000;2023-07-30T07:29:51;18.20;99.90
9083;DHT22;4577;48.704;9.000;2023-07-30T07:32:18;18.20;99.90
9083;DHT22;4577;48.704;9.000;2023-07-30T07:34:47;18.10;99.90
9083;DHT22;4577;48.704;9.000;2023-07-30T07:37:14;18.00;99.90
9083;DHT22;4577;48.704;9.000;2023-07-30T07:39:41;17.90;99.90
9083;DHT22;4577;48.704;9.000;2023-07-30T07:44:33;18.40;99.90
9083;DHT22;4577;48.704;9.000;2023-07-30T07:46:59;18.00;99.90
9083;DHT22;4577;48.704;9.000;2023-07-30T07:49:25;18.10;99.90
9083;DHT22;4577;48.704;9.000;2023-07-30T07:51:50;18.20;99.90
9083;DHT22;4577;48.704;9.000;2023-07-30T07:54:16;18.30;99.90
9083;DHT22;4577;48.704;9.000;2023-07-30T07:56:42;18.40;99.90
9083;DHT22;4577;48.704;9.000;2023-07-30T07:59:07;18.40;99.90
9083;DHT22;4577;48.704;9.000;2023-07-30T08:01:33;18.50;99.90
9083;DHT22;4577;48.704;9.000;2023-07-30T08:03:59;18.60;99.90
9083;DHT22;4577;48.704;9.000;2023-07-30T08:06:24;18.70;99.90
9083;DHT22;4577;48.704;9.000;2023-07-30T08:08:50;18.70;99.90
9083;DHT22;4577;48.704;9.000;2023-07-30T08:11:16;18.40;99.90
9083;DHT22;4577;48.704;9.000;2023-07-30T08:13:42;18.60;99.90
9083;DHT22;4577;48.704;9.000;2023-07-30T08:16:07;18.70;99.90
9083;DHT22;4577;48.704;9.000;2023-07-30T08:18:33;18.70;99.90
9083;DHT22;4577;48.704;9.000;2023-07-30T08:21:00;18.90;99.90
9083;DHT22;4577;48.704;9.000;2023-07-30T08:23:26;18.80;99.90
9083;DHT22;4577;48.704;9.000;2023-07-30T08:25:51;18.80;99.90
9083;DHT22;4577;48.704;9.000;2023-07-30T08:28:17;18.90;99.90
9083;DHT22;4577;48.704;9.000;2023-07-30T08:30:44;18.90;99.90
9083;DHT22;4577;48.704;9.000;2023-07-30T08:33:10;18.80;99.90
9083;DHT22;4577;48.704;9.000;2023-07-30T08:35:36;18.80;99.90
9083;DHT22;4577;48.704;9.000;2023-07-30T08:38:01;18.80;99.90
9083;DHT22;4577;48.704;9.000;2023-07-30T08:40:27;19.00;99.90
9083;DHT22;4577;48.704;9.000;2023-07-30T08:42:53;19.00;99.90
9083;DHT22;4577;48.704;9.000;2023-07-30T08:45:19;19.00;99.90
9083;DHT22;4577;48.704;9.000;2023-07-30T08:47:46;19.20;99.90
9083;DHT22;4577;48.704;9.000;2023-07-30T08:50:12;19.10;99.90
9083;DHT22;4577;48.704;9.000;2023-07-30T08:52:38;19.00;99.90
9083;DHT22;4577;48.704;9.000;2023-07-30T08:55:06;19.10;99.90
9083;DHT22;4577;48.704;9.000;2023-07-30T08:57:32;19.10;99.90
9083;DHT22;4577;48.704;9.000;2023-07-30T09:00:05;19.10;99.90
9083;DHT22;4577;48.704;9.000;2023-07-30T09:05:01;19.20;99.90
9083;DHT22;4577;48.704;9.000;2023-07-30T09:07:27;19.20;99.90
9083;DHT22;4577;48.704;9.000;2023-07-30T09:09:53;19.30;99.90
9083;DHT22;4577;48.704;9.000;2023-07-30T09:12:18;19.30;99.90
9083;DHT22;4577;48.704;9.000;2023-07-30T09:14:50;19.30;99.90
9083;DHT22;4577;48.704;9.000;2023-07-30T09:17:17;19.30;99.90
9083;DHT22;4577;48.704;9.000;2023-07-30T09:19:43;19.10;99.90
9083;DHT22;4577;48.704;9.000;2023-07-30T09:22:09;19.10;99.90
9083;DHT22;4577;48.704;9.000;2023-07-30T09:24:35;19.10;99.90
9083;DHT22;4577;48.704;9.000;2023-07-30T09:27:04;19.00;99.90
9083;DHT22;4577;48.704;9.000;2023-07-30T09:29:29;18.90;99.90
9083;DHT22;4577;48.704;9.000;2023-07-30T09:31:55;18.80;99.90
9083;DHT22;4577;48.704;9.000;2023-07-30T09:34:23;18.80;99.90
9083;DHT22;4577;48.704;9.000;2023-07-30T09:36:53;18.90;99.90
9083;DHT22;4577;48.704;9.000;2023-07-30T09:39:20;18.80;99.90
9083;DHT22;4577;48.704;9.000;2023-07-30T09:41:46;18.80;99.90
9083;DHT22;4577;48.704;9.000;2023-07-30T09:44:15;18.70;99.90
9083;DHT22;4577;48.704;9.000;2023-07-30T09:46:43;18.70;99.90
9083;DHT22;4577;48.704;9.000;2023-07-30T09:49:09;18.80;99.90
9083;DHT22;4577;48.704;9.000;2023-07-30T09:51:39;18.80;99.90
9083;DHT22;4577;48.704;9.000;2023-07-30T09:54:10;18.90;99.90
9083;DHT22;4577;48.704;9.000;2023-07-30T09:56:37;19.00;99.90
9083;DHT22;4577;48.704;9.000;2023-07-30T09:59:04;18.80;99.90
9083;DHT22;4577;48.704;9.000;2023-07-30T10:01:31;19.30;99.90
9083;DHT22;4577;48.704;9.000;2023-07-30T10:03:57;19.00;99.90
9083;DHT22;4577;48.704;9.000;2023-07-30T10:06:26;19.10;99.90
9083;DHT22;4577;48.704;9.000;2023-07-30T10:08:54;19.20;99.90
9083;DHT22;4577;48.704;9.000;2023-07-30T10:11:22;19.50;99.90
9083;DHT22;4577;48.704;9.000;2023-07-30T10:13:49;19.60;99.90
9083;DHT22;4577;48.704;9.000;2023-07-30T10:16:15;19.60;99.90
9083;DHT22;4577;48.704;9.000;2023-07-30T10:18:42;19.70;99.90
9083;DHT22;4577;48.704;9.000;2023-07-30T10:21:10;19.70;99.90
9083;DHT22;4577;48.704;9.000;2023-07-30T10:23:45;19.60;99.90
9083;DHT22;4577;48.704;9.000;2023-07-30T10:26:11;19.60;99.90
9083;DHT22;4577;48.704;9.000;2023-07-30T10:28:37;19.60;99.90
9083;DHT22;4577;48.704;9.000;2023-07-30T10:31:08;19.60;99.90
9083;DHT22;4577;48.704;9.000;2023-07-30T10:33:53;19.70;99.90
9083;DHT22;4577;48.704;9.000;2023-07-30T10:36:30;19.70;99.60
9083;DHT22;4577;48.704;9.000;2023-07-30T10:38:57;19.70;99.90
9083;DHT22;4577;48.704;9.000;2023-07-30T10:41:22;20.10;99.10
9083;DHT22;4577;48.704;9.000;2023-07-30T10:43:49;19.90;99.10
9083;DHT22;4577;48.704;9.000;2023-07-30T10:46:17;20.00;99.60
9083;DHT22;4577;48.704;9.000;2023-07-30T10:48:45;20.00;97.20
9083;DHT22;4577;48.704;9.000;2023-07-30T10:51:15;19.80;95.50
9083;DHT22;4577;48.704;9.000;2023-07-30T10:53:49;19.80;95.40
9083;DHT22;4577;48.704;9.000;2023-07-30T10:56:22;19.90;95.90
9083;DHT22;4577;48.704;9.000;2023-07-30T10:58:52;20.00;95.90
9083;DHT22;4577;48.704;9.000;2023-07-30T11:01:23;20.10;95.00
9083;DHT22;4577;48.704;9.000;2023-07-30T11:03:50;20.20;95.00
9083;DHT22;4577;48.704;9.000;2023-07-30T11:06:25;20.70;94.30
9083;DHT22;4577;48.704;9.000;2023-07-30T11:08:51;20.40;94.20
9083;DHT22;4577;48.704;9.000;2023-07-30T11:11:17;20.30;94.30
9083;DHT22;4577;48.704;9.000;2023-07-30T11:13:45;20.20;94.50
9083;DHT22;4577;48.704;9.000;2023-07-30T11:16:15;20.20;94.50
9083;DHT22;4577;48.704;9.000;2023-07-30T11:18:42;20.30;95.10
9083;DHT22;4577;48.704;9.000;2023-07-30T11:21:10;20.40;95.20
9083;DHT22;4577;48.704;9.000;2023-07-30T11:23:37;20.50;94.90
9083;DHT22;4577;48.704;9.000;2023-07-30T11:26:04;20.50;94.40
9083;DHT22;4577;48.704;9.000;2023-07-30T11:31:02;20.50;95.10
9083;DHT22;4577;48.704;9.000;2023-07-30T11:33:29;20.50;94.90
9083;DHT22;4577;48.704;9.000;2023-07-30T11:35:55;20.70;94.90
9083;DHT22;4577;48.704;9.000;2023-07-30T11:38:24;20.70;96.60
9083;DHT22;4577;48.704;9.000;2023-07-30T11:40:51;20.60;96.60
9083;DHT22;4577;48.704;9.000;2023-07-30T11:43:17;20.30;97.30
9083;DHT22;4577;48.704;9.000;2023-07-30T11:45:43;20.20;98.30
9083;DHT22;4577;48.704;9.000;2023-07-30T11:48:10;20.20;99.00
9083;DHT22;4577;48.704;9.000;2023-07-30T11:50:47;19.90;99.00
9083;DHT22;4577;48.704;9.000;2023-07-30T11:53:13;19.90;99.10
9083;DHT22;4577;48.704;9.000;2023-07-30T11:55:39;19.90;98.60
9083;DHT22;4577;48.704;9.000;2023-07-30T11:58:06;19.80;98.70
9083;DHT22;4577;48.704;9.000;2023-07-30T12:00:32;19.70;98.20
9083;DHT22;4577;48.704;9.000;2023-07-30T12:03:07;19.60;98.00
9083;DHT22;4577;48.704;9.000;2023-07-30T12:05:35;19.70;98.40
9083;DHT22;4577;48.704;9.000;2023-07-30T12:08:02;19.70;98.10
9083;DHT22;4577;48.704;9.000;2023-07-30T12:10:43;19.70;98.30
9083;DHT22;4577;48.704;9.000;2023-07-30T12:13:17;19.70;98.10
9083;DHT22;4577;48.704;9.000;2023-07-30T12:15:50;19.80;98.30
9083;DHT22;4577;48.704;9.000;2023-07-30T12:18:16;20.00;97.60
9083;DHT22;4577;48.704;9.000;2023-07-30T12:20:42;19.90;96.40
9083;DHT22;4577;48.704;9.000;2023-07-30T12:23:07;20.00;96.70
9083;DHT22;4577;48.704;9.000;2023-07-30T12:25:33;20.10;96.30
9083;DHT22;4577;48.704;9.000;2023-07-30T12:27:59;20.30;95.60
9083;DHT22;4577;48.704;9.000;2023-07-30T12:30:25;20.30;96.80
9083;DHT22;4577;48.704;9.000;2023-07-30T12:32:52;20.30;96.50
9083;DHT22;4577;48.704;9.000;2023-07-30T12:35:17;20.30;97.00
9083;DHT22;4577;48.704;9.000;2023-07-30T12:37:43;20.20;96.80
9083;DHT22;4577;48.704;9.000;2023-07-30T12:40:09;20.10;97.30
9083;DHT22;4577;48.704;9.000;2023-07-30T12:42:35;20.10;97.90
9083;DHT22;4577;48.704;9.000;2023-07-30T12:45:00;20.00;97.20
9083;DHT22;4577;48.704;9.000;2023-07-30T12:47:26;19.90;96.70
9083;DHT22;4577;48.704;9.000;2023-07-30T12:49:52;19.70;96.80
9083;DHT22;4577;48.704;9.000;2023-07-30T12:52:17;19.80;96.50
9083;DHT22;4577;48.704;9.000;2023-07-30T12:54:43;19.90;96.00
9083;DHT22;4577;48.704;9.000;2023-07-30T12:57:09;20.00;95.80
9083;DHT22;4577;48.704;9.000;2023-07-30T12:59:34;20.30;95.00
9083;DHT22;4577;48.704;9.000;2023-07-30T13:02:01;20.30;94.80
9083;DHT22;4577;48.704;9.000;2023-07-30T13:04:27;20.30;93.50
9083;DHT22;4577;48.704;9.000;2023-07-30T13:06:53;20.50;93.50
9083;DHT22;4577;48.704;9.000;2023-07-30T13:09:20;20.70;93.40
9083;DHT22;4577;48.704;9.000;2023-07-30T13:11:45;20.60;92.60
9083;DHT22;4577;48.704;9.000;2023-07-30T13:14:11;20.60;92.10
9083;DHT22;4577;48.704;9.000;2023-07-30T13:16:37;20.80;92.70
9083;DHT22;4577;48.704;9.000;2023-07-30T13:19:03;20.90;92.80
9083;DHT22;4577;48.704;9.000;2023-07-30T13:21:28;20.30;94.10
9083;DHT22;4577;48.704;9.000;2023-07-30T13:23:54;20.60;94.30
9083;DHT22;4577;48.704;9.000;2023-07-30T13:26:19;20.50;94.50
9083;DHT22;4577;48.704;9.000;2023-07-30T13:28:46;20.40;94.40
9083;DHT22;4577;48.704;9.000;2023-07-30T13:31:11;20.40;94.00
9083;DHT22;4577;48.704;9.000;2023-07-30T13:33:37;20.60;93.80
9083;DHT22;4577;48.704;9.000;2023-07-30T13:36:04;20.60;92.70
9083;DHT22;4577;48.704;9.000;2023-07-30T13:38:30;20.40;92.00
9083;DHT22;4577;48.704;9.000;2023-07-30T13:40:56;20.50;92.80
9083;DHT22;4577;48.704;9.000;2023-07-30T13:43:21;23.80;94.30
9083;DHT22;4577;48.704;9.000;2023-07-30T13:45:47;20.80;92.00
9083;DHT22;4577;48.704;9.000;2023-07-30T13:48:16;20.70;92.00
9083;DHT22;4577;48.704;9.000;2023-07-30T13:50:42;20.60;92.20
9083;DHT22;4577;48.704;9.000;2023-07-30T13:53:07;20.60;92.40
9083;DHT22;4577;48.704;9.000;2023-07-30T13:55:33;20.70;92.50
9083;DHT22;4577;48.704;9.000;2023-07-30T13:57:59;20.80;92.50
9083;DHT22;4577;48.704;9.000;2023-07-30T14:00:25;20.80;91.80
9083;DHT22;4577;48.704;9.000;2023-07-30T14:02:50;20.80;91.70
9083;DHT22;4577;48.704;9.000;2023-07-30T14:05:17;20.60;91.50
9083;DHT22;4577;48.704;9.000;2023-07-30T14:07:43;20.80;92.10
9083;DHT22;4577;48.704;9.000;2023-07-30T14:10:09;20.80;91.20
9083;DHT22;4577;48.704;9.000;2023-07-30T14:12:35;23.10;92.50
9083;DHT22;4577;48.704;9.000;2023-07-30T14:15:01;21.00;90.90
9083;DHT22;4577;48.704;9.000;2023-07-30T14:17:27;20.90;91.00
9083;DHT22;4577;48.704;9.000;2023-07-30T14:19:53;20.70;91.40
9083;DHT22;4577;48.704;9.000;2023-07-30T14:22:21;20.40;91.40
9083;DHT22;4577;48.704;9.000;2023-07-30T14:24:46;20.40;91.50
9083;DHT22;4577;48.704;9.000;2023-07-30T14:27:12;20.50;91.30
9083;DHT22;4577;48.704;9.000;2023-07-30T14:29:38;20.70;90.90
9083;DHT22;4577;48.704;9.000;2023-07-30T14:32:04;20.60;90.10
9083;DHT22;4577;48.704;9.000;2023-07-30T14:34:30;20.70;90.70
9083;DHT22;4577;48.704;9.000;2023-07-30T14:36:55;20.60;90.60
9083;DHT22;4577;48.704;9.000;2023-07-30T14:39:21;20.60;89.30
9083;DHT22;4577;48.704;9.000;2023-07-30T14:41:47;20.60;89.00
9083;DHT22;4577;48.704;9.000;2023-07-30T14:44:12;21.20;90.70
9083;DHT22;4577;48.704;9.000;2023-07-30T14:46:38;20.40;90.70
9083;DHT22;4577;48.704;9.000;2023-07-30T14:49:04;20.60;90.00
9083;DHT22;4577;48.704;9.000;2023-07-30T14:51:30;20.80;89.20
9083;DHT22;4577;48.704;9.000;2023-07-30T14:53:55;20.50;88.70
9083;DHT22;4577;48.704;9.000;2023-07-30T14:56:21;20.50;88.50
9083;DHT22;4577;48.704;9.000;2023-07-30T14:58:47;20.60;87.80
9083;DHT22;4577;48.704;9.000;2023-07-30T15:01:12;21.20;88.20
9083;DHT22;4577;48.704;9.000;2023-07-30T15:03:38;20.60;85.90
9083;DHT22;4577;48.704;9.000;2023-07-30T15:06:04;20.70;86.70
9083;DHT22;4577;48.704;9.000;2023-07-30T15:08:29;20.70;85.30
9083;DHT22;4577;48.704;9.000;2023-07-30T15:10:57;20.90;85.80
9083;DHT22;4577;48.704;9.000;2023-07-30T15:13:23;20.10;84.30
9083;DHT22;4577;48.704;9.000;2023-07-30T15:15:51;20.50;84.60
9083;DHT22;4577;48.704;9.000;2023-07-30T15:18:16;20.50;83.10
9083;DHT22;4577;48.704;9.000;2023-07-30T15:20:42;20.70;82.20
9083;DHT22;4577;48.704;9.000;2023-07-30T15:23:08;20.50;81.60
9083;DHT22;4577;48.704;9.000;2023-07-30T15:25:37;20.70;82.70
9083;DHT22;4577;48.704;9.000;2023-07-30T15:28:03;20.80;82.30
9083;DHT22;4577;48.704;9.000;2023-07-30T15:30:29;20.70;79.60
9083;DHT22;4577;48.704;9.000;2023-07-30T15:32:55;20.50;80.00
9083;DHT22;4577;48.704;9.000;2023-07-30T15:35:21;20.50;78.90
9083;DHT22;4577;48.704;9.000;2023-07-30T15:37:46;20.30;77.70
9083;DHT22;4577;48.704;9.000;2023-07-30T15:40:12;19.90;79.40
9083;DHT22;4577;48.704;9.000;2023-07-30T15:42:38;20.10;78.10
9083;DHT22;4577;48.704;9.000;2023-07-30T15:45:05;20.10;78.20
9083;DHT22;4577;48.704;9.000;2023-07-30T15:47:31;20.30;77.70
9083;DHT22;4577;48.704;9.000;2023-07-30T15:49:57;20.30;78.40
9083;DHT22;4577;48.704;9.000;2023-07-30T15:52:23;20.30;77.60
9083;DHT22;4577;48.704;9.000;2023-07-30T15:54:48;20.30;77.10
9083;DHT22;4577;48.704;9.000;2023-07-30T15:57:14;20.30;73.70
9083;DHT22;4577;48.704;9.000;2023-07-30T15:59:47;20.30;73.40
9083;DHT22;4577;48.704;9.000;2023-07-30T16:07:05;20.40;74.30
9083;DHT22;4577;48.704;9.000;2023-07-30T16:09:32;20.50;74.00
9083;DHT22;4577;48.704;9.000;2023-07-30T16:11:58;20.30;71.50